^^

Nearby METAR Reports

METAR (Meteorological Aerodrome Report) are Airport generated local weather condition reports for use, predominantly by pilots, these reports are also used as part of compliment of data sets required for Chatteris Weathers prediction software - WxSim.

EGUN - Mildenhall Raf, United Kingdom
Distance from station: ESE 19mi, 31km
Updated: 24/01/2019 03:56
Mist, Clear
Mist, Clear
 Wind from SW
Wind: SW 3 mph , 6 km/h
Temperature: -3°C
Dew Point: -3°C
Humidity: 100%
Barometer: 1008.8 hPa
Summary: Mist
Clouds: Clear
Visibility: 6 miles , 9 km
2019/01/24 03:56 EGUN 240356Z 22003KT 9000 BR CLR M03/M03 A2979 RMK AO2A SLP092 WND DATA ESTMD T10351035 $
EGSC - Cambridge, United Kingdom
Distance from station: SSE 20mi, 32km
Updated: 23/01/2019 17:50
NOT Current
Mostly cloudy
Mostly cloudy
 Wind from N
Wind: N 3 mph , 6 km/h
Temperature: 3°C
Dew Point: 0°C
Humidity: 81%
Barometer: 1006 hPa
Clouds: Mostly cloudy
Visibility: 6 miles , 10 km
Cloud details: Mostly cloudy 518 m
2019/01/23 17:50 EGSC 231750Z 35003KT 9999 BKN017 03/M00 Q1006
 
EGUL - Lakenheath Raf, United Kingdom
Distance from station: E 22mi, 36km
Updated: 24/01/2019 03:56
Partly cloudy
Partly cloudy
 Wind from calm
Wind: Calm
Temperature: -5°C
Dew Point: -6°C
Humidity: 93%
Barometer: 1008.8 hPa
Clouds: Partly cloudy
Visibility: 6 miles , 10 km
Cloud details: Partly cloudy 3048 m
2019/01/24 03:56 EGUL 240356Z AUTO 00000KT 9999 SCT100 M05/M06 A2979 RMK AO2 SLP092 T10461061 $
EGXT - Wittering Raf, United Kingdom
Distance from station: WNW 24mi, 38km
Updated: 24/01/2019 03:50
Mist, Overcast
Mist, Overcast
 Wind from SW
Wind: SW 5 mph , 7 km/h
Temperature: -1°C
Wind Chill: -4°C
Dew Point: -2°C
Humidity: 93%
Barometer: 1008 hPa
Summary: Mist
Clouds: Overcast
Visibility: 3 miles , 5 km
Cloud details: Overcast 2743 m
2019/01/24 03:50 EGXT 240350Z AUTO 23004KT 5000 BR OVC090/// M01/M02 Q1008
 
EGYH - Holbeach (aut), United Kingdom
Distance from station: N 27mi, 44km
Updated: 23/01/2019 15:50
NOT Current
Clear
Clear
 Wind from NNW
Wind: NNW 9 mph , 15 km/h
Temperature: 1°C
Wind Chill: -3°C
Dew Point: 0°C
Humidity: 93%
Barometer: 1005 hPa
Summary: Clear
Visibility: greater than 7 miles , 10 km
2019/01/23 15:50 EGYH 231550Z 33008KT CAVOK 01/M00 Q1005 BLU
EGSS - Stansted Airport, United Kingdom
Distance from station: SE 11mi, 18km
Updated: 24/01/2019 03:50
Mist, Partly cloudy
Mist, Partly cloudy
 Wind from SW
Wind: SW 5 mph , 7 km/h
Temperature: -4°C
Wind Chill: -7°C
Dew Point: -5°C
Humidity: 93%
Barometer: 1009 hPa
Summary: Mist
Clouds: Partly cloudy
Visibility: 2 miles , 4 km
2019/01/24 03:50 EGSS 240350Z 22004KT 4000 BR NSC M04/M05 Q1009
 
EGGW - Luton Airport, United Kingdom
Distance from station: WSW 19mi, 31km
Updated: 24/01/2019 03:50
Clear
Clear
 Wind from WSW
Wind: WSW 5 mph , 7 km/h
Temperature: -2°C
Wind Chill: -6°C
Dew Point: -2°C
Humidity: 100%
Barometer: 1009 hPa
Clouds: Clear
Visibility: 6 miles , 9 km
2019/01/24 03:50 EGGW 240350Z AUTO 24004KT 9000 NCD M02/M02 Q1009
EGLL - London/Heathrow, United Kingdom
Distance from station: SSW 41mi, 66km
Updated: 24/01/2019 03:50
Mist, Clear
Mist, Clear
 Wind from SSW
Wind: SSW 2 mph , 4 km/h
Temperature: -2°C
Dew Point: -2°C
Humidity: 100%
Barometer: 1010 hPa
Summary: Mist
Clouds: Clear
Visibility: 1 mile , 2 km
2019/01/24 03:50 EGLL 240350Z AUTO 21002KT 2200 BR NCD M02/M02 Q1010
 
EGKK - London/Gatwick A, United Kingdom
Distance from station: S 60mi, 97km
Updated: 24/01/2019 03:50
Mist, Partly cloudy
Mist, Partly cloudy
 Wind from ESE
Wind: ESE 1 mph , 2 km/h
Temperature: -4°C
Dew Point: -4°C
Humidity: 100%
Barometer: 1010 hPa
Summary: Mist
Clouds: Partly cloudy
Visibility: 3 miles , 5 km
2019/01/24 03:50 EGKK 240350Z 11001KT 4500 BR NSC M04/M04 Q1010
EGUY - Wyton Raf, United Kingdom
Distance from station: SW 11mi, 18km
Updated: 04/10/2015 09:50
NOT Current
Haze, Clear
Haze, Clear
 Wind from SSE
Wind: SSE 2 mph , 4 km/h
Temperature: 11°C
Dew Point: 7°C
Humidity: 77%
Barometer: 1014 hPa
Summary: Haze
Clouds: Clear
Visibility: 4 miles , 6 km
2015/10/04 08:50 EGUY 040850Z 15002KT 6000 HZ SKC 11/07 Q1014 WHT

Met Office METAR data link, decoding METAR data code.